Fox Lake, Indiana
Current Conditions -  °F | °C
As of 6:35 PM on Friday 31 Oct 2014 (Local Time) from KANQ Reporting Station
NA  
Wind Chill: 24°   Ceiling: NA
Heat Index: 34°   Visibility: NA
Dew Point: 18°   Wind: 16mph
Humidity: 52%   Direction: 10°N
Pressure: 30.05"   Gusts: 29mph
Location:  41.6594°N, 85.0055°W
Report Text: KANQ 312235Z AUTO 01014G25KT 01/M08 A3005 RMK
Loading
Personal Weather Stations






























Interactive Weather Map
Tropical Storm Tracking
New forecast layout! Learn more

10-Day Weather Forecast

Advertisements
Track Severe Weather on mobile